Airport View

Enter AWOS ICAO identifier for current METAR.

KFNL for example

KPIT 042251Z 26005KT 10SM SCT060 SCT250 29/15 A3008 RMK AO2 SLP184 T02940150

4 Sep 2015 23:02

Phone: 412-472-0145

Other Area AWOS: 42PN - KAGC - KBVI - KBTP

TAF AMD KPIT 042055Z 0421/0524 25005KT P6SM SCT040 BKN250 FM050000 11003KT P6SM SCT250 FM051000 VRB03KT 5SM BR SCT250 FM051400 16005KT P6SM SCT040 BKN250